Time;durP1;ratioP1;P1;durP2;ratioP2;P2;SDS_P1;SDS_P2;PMS_P1;PMS_P2;Temp;Humidity;BMP_temperature;BMP_pressure;BME280_temperature;BME280_humidity;BME280_pressure;Samples;Min_cycle;Max_cycle;Signal;HPM_P1;HPM_P2
2021/10/17 00:01:44;;;;;;;13.77;6.30;;;9.00;99.90;;;;;;5062956;28;20226;-70
2021/10/17 00:04:11;;;;;;;13.90;6.57;;;9.00;99.90;;;;;;5054497;28;20700;-70
2021/10/17 00:06:38;;;;;;;13.87;6.30;;;9.00;99.90;;;;;;5066130;28;20201;-68
2021/10/17 00:09:05;;;;;;;13.10;6.67;;;9.00;99.90;;;;;;5071605;28;20208;-69
2021/10/17 00:11:32;;;;;;;13.07;6.50;;;9.00;99.90;;;;;;5057216;28;20208;-68
2021/10/17 00:13:59;;;;;;;11.40;6.03;;;9.00;99.90;;;;;;5054344;28;20201;-69
2021/10/17 00:16:25;;;;;;;14.13;6.10;;;9.00;99.90;;;;;;5068120;28;20638;-69
2021/10/17 00:18:54;;;;;;;13.23;6.13;;;9.00;99.90;;;;;;5054547;28;20218;-70
2021/10/17 00:21:20;;;;;;;10.57;6.03;;;9.00;99.90;;;;;;5064393;28;20210;-70
2021/10/17 00:23:47;;;;;;;11.60;6.50;;;9.00;99.90;;;;;;5053896;28;20226;-70
2021/10/17 00:26:14;;;;;;;10.87;6.13;;;9.00;99.90;;;;;;5055047;28;21037;-70
2021/10/17 00:28:41;;;;;;;10.23;6.23;;;9.00;99.90;;;;;;5053880;28;20634;-70
2021/10/17 00:31:08;;;;;;;11.87;5.87;;;9.10;99.90;;;;;;5053439;28;20328;-70
2021/10/17 00:33:35;;;;;;;14.23;6.83;;;9.00;99.90;;;;;;5053813;28;20216;-70
2021/10/17 00:36:03;;;;;;;14.03;5.90;;;9.00;99.90;;;;;;5052938;28;20257;-68
2021/10/17 00:38:30;;;;;;;12.10;6.00;;;9.00;99.90;;;;;;5059068;28;20205;-69
2021/10/17 00:40:56;;;;;;;11.87;6.30;;;9.00;99.90;;;;;;5061764;28;20294;-70
2021/10/17 00:43:23;;;;;;;15.17;7.40;;;9.00;99.90;;;;;;5055020;28;20674;-70
2021/10/17 00:45:51;;;;;;;14.07;5.93;;;9.00;99.90;;;;;;5067490;28;20329;-70
2021/10/17 00:48:17;;;;;;;14.33;6.40;;;9.10;99.90;;;;;;5053652;28;20206;-69
2021/10/17 00:50:44;;;;;;;16.17;7.20;;;9.00;99.90;;;;;;5053546;28;20212;-69
2021/10/17 00:53:13;;;;;;;13.43;7.03;;;9.00;99.90;;;;;;5066648;28;20208;-68
2021/10/17 00:55:39;;;;;;;14.30;6.90;;;9.00;99.90;;;;;;5052761;28;20937;-70
2021/10/17 00:58:07;;;;;;;12.87;6.97;;;9.00;99.90;;;;;;5054212;28;20210;-70
2021/10/17 01:00:33;;;;;;;12.13;6.13;;;8.90;99.90;;;;;;5062592;28;20245;-70
2021/10/17 01:03:00;;;;;;;15.50;7.57;;;9.00;99.90;;;;;;5066201;28;20292;-70
2021/10/17 01:05:29;;;;;;;12.60;6.90;;;8.90;99.90;;;;;;5055444;28;20232;-71
2021/10/17 01:07:56;;;;;;;15.60;6.97;;;8.90;99.90;;;;;;5059784;28;20202;-71
2021/10/17 01:10:27;;;;;;;14.03;6.37;;;9.00;99.90;;;;;;5061240;28;20201;-69
2021/10/17 01:12:54;;;;;;;13.73;7.10;;;9.00;99.90;;;;;;5058151;28;20650;-69
2021/10/17 01:15:21;;;;;;;14.57;6.70;;;9.00;99.90;;;;;;5052933;28;20289;-69
2021/10/17 01:17:48;;;;;;;14.10;7.17;;;9.00;99.90;;;;;;5058577;28;20206;-70
2021/10/17 01:20:17;;;;;;;16.80;7.57;;;9.00;99.90;;;;;;5052848;28;20209;-71
2021/10/17 01:22:44;;;;;;;13.93;6.30;;;9.00;99.90;;;;;;5052784;28;20209;-69
2021/10/17 01:25:11;;;;;;;14.30;7.00;;;8.90;99.90;;;;;;5053346;28;20229;-69
2021/10/17 01:27:38;;;;;;;17.80;6.93;;;8.90;99.90;;;;;;5053516;28;20667;-69
2021/10/17 01:30:07;;;;;;;16.03;8.50;;;8.90;99.90;;;;;;5062268;28;20237;-70
2021/10/17 01:32:34;;;;;;;15.70;8.23;;;9.00;99.90;;;;;;5063455;28;20213;-70
2021/10/17 01:35:00;;;;;;;12.90;6.73;;;9.00;99.90;;;;;;5053086;28;20293;-70
2021/10/17 01:37:29;;;;;;;13.07;7.57;;;8.90;99.90;;;;;;5067079;28;20654;-70
2021/10/17 01:39:55;;;;;;;15.03;7.90;;;8.90;99.90;;;;;;5067638;28;20209;-70
2021/10/17 01:42:22;;;;;;;15.90;7.80;;;8.90;99.90;;;;;;5053908;28;20205;-69
2021/10/17 01:44:49;;;;;;;17.60;7.50;;;8.90;99.90;;;;;;5053340;28;20231;-70
2021/10/17 01:47:16;;;;;;;14.53;8.00;;;8.90;99.90;;;;;;5052751;28;20566;-70
2021/10/17 01:49:43;;;;;;;14.00;7.63;;;8.90;99.90;;;;;;5053382;28;20388;-71
2021/10/17 01:52:10;;;;;;;15.07;7.03;;;8.90;99.90;;;;;;5060573;28;20220;-71
2021/10/17 01:54:38;;;;;;;13.47;7.60;;;8.90;99.90;;;;;;5072940;28;20197;-71
2021/10/17 01:57:05;;;;;;;11.93;7.40;;;8.90;99.90;;;;;;5065875;28;20213;-71
2021/10/17 01:59:32;;;;;;;12.20;6.93;;;9.00;99.90;;;;;;5052458;28;20206;-71
2021/10/17 02:01:59;;;;;;;15.00;8.10;;;8.90;99.90;;;;;;5054107;28;20202;-70
2021/10/17 02:04:26;;;;;;;13.37;7.63;;;8.90;99.90;;;;;;5052424;28;20344;-70
2021/10/17 02:06:52;;;;;;;17.90;8.37;;;8.90;99.90;;;;;;5052390;28;20210;-69
2021/10/17 02:09:19;;;;;;;20.17;8.50;;;8.90;99.90;;;;;;5052275;28;20212;-71
2021/10/17 02:11:47;;;;;;;15.97;7.67;;;8.90;99.90;;;;;;5056990;28;20299;-68
2021/10/17 02:14:14;;;;;;;17.30;8.37;;;8.90;99.90;;;;;;5061433;28;20220;-70
2021/10/17 02:16:41;;;;;;;17.33;7.77;;;9.00;99.90;;;;;;5055282;28;20205;-70
2021/10/17 02:19:08;;;;;;;16.20;8.33;;;8.90;99.90;;;;;;5068003;28;20208;-70
2021/10/17 02:21:35;;;;;;;16.43;7.67;;;8.90;99.90;;;;;;5057053;28;20213;-72
2021/10/17 02:24:02;;;;;;;18.33;8.20;;;8.90;99.90;;;;;;5052982;28;20213;-72
2021/10/17 02:26:29;;;;;;;13.30;8.37;;;8.90;99.90;;;;;;5066791;28;20213;-69
2021/10/17 02:28:57;;;;;;;16.27;8.20;;;8.90;99.90;;;;;;5054664;28;20210;-68
2021/10/17 02:31:24;;;;;;;18.27;8.50;;;8.90;99.90;;;;;;5063729;28;20205;-69
2021/10/17 02:33:50;;;;;;;13.37;7.97;;;9.00;99.90;;;;;;5067001;28;20574;-69
2021/10/17 02:36:17;;;;;;;15.77;7.97;;;8.90;99.90;;;;;;5064450;28;20226;-69
2021/10/17 02:38:44;;;;;;;17.40;9.27;;;8.90;99.90;;;;;;5055481;28;20221;-70
2021/10/17 02:41:11;;;;;;;14.37;8.20;;;8.90;99.90;;;;;;5064872;28;20212;-69
2021/10/17 02:43:37;;;;;;;16.63;8.37;;;9.00;99.90;;;;;;5056869;28;20681;-70
2021/10/17 02:46:06;;;;;;;15.73;8.77;;;9.00;99.90;;;;;;5056371;28;20248;-69
2021/10/17 02:48:33;;;;;;;15.23;8.63;;;8.90;99.90;;;;;;5055633;28;20206;-69
2021/10/17 02:50:59;;;;;;;15.20;7.97;;;9.00;99.90;;;;;;5071337;28;20202;-69
2021/10/17 02:53:26;;;;;;;16.90;8.47;;;9.00;99.90;;;;;;5066459;28;20205;-70
2021/10/17 02:55:53;;;;;;;19.17;8.23;;;9.00;99.90;;;;;;5056063;28;20229;-69
2021/10/17 02:58:20;;;;;;;18.47;9.13;;;8.90;99.90;;;;;;5068320;28;20206;-69
2021/10/17 03:00:47;;;;;;;14.90;8.73;;;8.90;99.90;;;;;;5062226;28;20219;-70
2021/10/17 03:03:15;;;;;;;16.67;8.40;;;8.90;99.90;;;;;;5065438;28;20212;-70
2021/10/17 03:05:42;;;;;;;14.73;8.67;;;8.90;99.90;;;;;;5061179;28;20308;-70
2021/10/17 03:08:09;;;;;;;15.67;8.70;;;8.90;99.90;;;;;;5067179;28;20201;-69
2021/10/17 03:10:36;;;;;;;19.27;8.67;;;8.90;99.90;;;;;;5065604;28;20225;-69
2021/10/17 03:13:03;;;;;;;14.57;7.47;;;8.90;99.90;;;;;;5067444;28;20568;-72
2021/10/17 03:15:30;;;;;;;13.27;8.23;;;8.90;99.90;;;;;;5060246;28;20576;-72
2021/10/17 03:17:57;;;;;;;13.77;7.60;;;9.00;99.90;;;;;;5074823;28;20209;-72
2021/10/17 03:20:25;;;;;;;15.50;8.87;;;8.90;99.90;;;;;;5056534;28;20202;-72
2021/10/17 03:22:52;;;;;;;17.30;7.47;;;8.90;99.90;;;;;;5073989;28;20236;-72
2021/10/17 03:25:19;;;;;;;22.30;8.30;;;8.90;99.90;;;;;;5055953;28;20224;-70
2021/10/17 03:27:46;;;;;;;14.27;8.50;;;8.90;99.90;;;;;;5055050;28;20220;-70
2021/10/17 03:30:14;;;;;;;14.90;8.20;;;9.00;99.90;;;;;;5054032;28;20237;-71
2021/10/17 03:32:41;;;;;;;16.23;8.50;;;9.00;99.90;;;;;;5060452;28;20206;-71
2021/10/17 03:35:08;;;;;;;15.27;8.17;;;8.90;99.90;;;;;;5054814;28;20202;-72
2021/10/17 03:37:37;;;;;;;17.77;8.17;;;9.00;99.90;;;;;;5061181;28;20233;-71
2021/10/17 03:40:05;;;;;;;17.07;8.77;;;8.90;99.90;;;;;;5053788;28;20294;-72
2021/10/17 03:42:32;;;;;;;19.10;8.37;;;8.90;99.90;;;;;;5061333;28;20668;-71
2021/10/17 03:44:59;;;;;;;16.67;8.13;;;8.90;99.90;;;;;;5054538;28;20777;-71
2021/10/17 03:47:25;;;;;;;16.50;8.47;;;8.90;99.90;;;;;;5054222;28;20571;-73
2021/10/17 03:49:52;;;;;;;16.13;8.53;;;8.90;99.90;;;;;;5056082;28;20202;-70
2021/10/17 03:52:19;;;;;;;22.03;9.00;;;8.90;99.90;;;;;;5061414;28;20220;-73
2021/10/17 03:54:48;;;;;;;15.93;8.27;;;8.90;99.90;;;;;;5055442;28;20206;-72
2021/10/17 03:57:14;;;;;;;14.27;7.93;;;8.90;99.90;;;;;;5056670;28;20214;-71
2021/10/17 03:59:41;;;;;;;15.40;8.50;;;9.00;99.90;;;;;;5056333;28;20260;-70
2021/10/17 04:02:08;;;;;;;15.67;8.03;;;8.90;99.90;;;;;;5061745;28;20209;-72
2021/10/17 04:04:35;;;;;;;19.00;8.87;;;9.00;99.90;;;;;;5059543;28;20214;-72
2021/10/17 04:07:02;;;;;;;14.37;8.13;;;8.90;99.90;;;;;;5065260;28;20213;-72
2021/10/17 04:09:29;;;;;;;16.80;8.20;;;9.00;99.90;;;;;;5053579;28;20220;-72
2021/10/17 04:11:57;;;;;;;13.87;7.63;;;9.00;99.90;;;;;;5056525;28;20681;-72
2021/10/17 04:14:24;;;;;;;12.77;7.57;;;9.00;99.90;;;;;;5053485;28;20209;-71
2021/10/17 04:16:50;;;;;;;16.63;8.10;;;8.90;99.90;;;;;;5053420;28;20212;-71
2021/10/17 04:19:17;;;;;;;16.37;7.93;;;8.90;99.90;;;;;;5052922;28;20210;-71
2021/10/17 04:21:44;;;;;;;15.43;7.87;;;8.90;99.90;;;;;;5060053;28;20202;-71
2021/10/17 04:24:11;;;;;;;17.20;9.00;;;8.90;99.90;;;;;;5073587;28;20213;-72
2021/10/17 04:26:38;;;;;;;16.23;7.93;;;8.90;99.90;;;;;;5061199;28;20225;-72
2021/10/17 04:29:06;;;;;;;16.13;8.10;;;8.90;99.90;;;;;;5063603;28;20212;-72
2021/10/17 04:31:33;;;;;;;13.70;7.23;;;9.00;99.90;;;;;;5061144;28;20274;-73
2021/10/17 04:34:00;;;;;;;16.17;7.23;;;9.00;99.90;;;;;;5053491;28;20206;-71
2021/10/17 04:36:27;;;;;;;17.33;8.13;;;9.00;99.90;;;;;;5053525;28;20815;-71
2021/10/17 04:38:54;;;;;;;14.17;7.20;;;9.00;99.90;;;;;;5060290;28;20549;-72
2021/10/17 04:41:21;;;;;;;13.87;7.50;;;9.00;99.90;;;;;;5061302;28;20220;-71
2021/10/17 04:43:48;;;;;;;14.03;7.60;;;9.00;99.90;;;;;;5073235;28;20213;-71
2021/10/17 04:46:16;;;;;;;14.63;7.60;;;9.00;99.90;;;;;;5064357;28;20312;-72
2021/10/17 04:48:43;;;;;;;13.33;7.20;;;9.00;99.90;;;;;;5052795;28;20210;-73
2021/10/17 04:51:10;;;;;;;12.13;7.37;;;9.00;99.90;;;;;;5055886;28;20208;-72
2021/10/17 04:53:37;;;;;;;17.70;7.23;;;9.00;99.90;;;;;;5061858;28;20204;-73
2021/10/17 04:56:04;;;;;;;12.80;5.80;;;9.10;99.90;;;;;;5058112;28;20212;-72
2021/10/17 04:58:31;;;;;;;11.40;7.27;;;9.10;99.90;;;;;;5058084;28;20248;-73
2021/10/17 05:00:57;;;;;;;10.93;6.20;;;9.20;99.90;;;;;;5061782;28;20288;-72
2021/10/17 05:03:26;;;;;;;13.57;6.60;;;9.20;99.90;;;;;;5066504;28;20206;-72
2021/10/17 05:05:52;;;;;;;11.33;6.13;;;9.20;99.90;;;;;;5053081;28;20309;-72
2021/10/17 05:08:19;;;;;;;14.30;6.43;;;9.20;99.90;;;;;;5065631;28;20209;-73
2021/10/17 05:10:46;;;;;;;10.70;6.47;;;9.30;99.90;;;;;;5059836;28;20205;-72
2021/10/17 05:13:13;;;;;;;15.33;6.33;;;9.20;99.90;;;;;;5055915;28;20241;-72
2021/10/17 05:15:40;;;;;;;10.40;6.43;;;9.20;99.90;;;;;;5059653;28;20202;-73
2021/10/17 05:18:07;;;;;;;11.33;6.03;;;9.20;99.90;;;;;;5054055;28;20205;-72
2021/10/17 05:20:35;;;;;;;11.20;6.13;;;9.30;99.90;;;;;;5065768;28;20214;-73
2021/10/17 05:23:02;;;;;;;12.37;6.33;;;9.20;99.90;;;;;;5053080;28;20236;-72
2021/10/17 05:25:29;;;;;;;10.43;6.40;;;9.30;99.90;;;;;;5052522;28;20654;-73
2021/10/17 05:27:55;;;;;;;13.73;6.63;;;9.30;99.90;;;;;;5054683;28;20206;-72
2021/10/17 05:30:22;;;;;;;11.30;6.00;;;9.20;99.90;;;;;;5052368;28;20787;-73
2021/10/17 05:32:49;;;;;;;15.37;6.43;;;9.30;99.90;;;;;;5053611;28;20296;-71
2021/10/17 05:35:16;;;;;;;14.07;5.87;;;9.30;99.90;;;;;;5058224;28;20214;-72
2021/10/17 05:37:44;;;;;;;12.73;6.23;;;9.20;99.90;;;;;;5054917;28;20226;-72
2021/10/17 05:40:11;;;;;;;12.13;5.43;;;9.20;99.90;;;;;;5052770;28;20206;-70
2021/10/17 05:42:38;;;;;;;12.67;6.23;;;9.30;99.90;;;;;;5072374;28;20246;-70
2021/10/17 05:45:06;;;;;;;8.13;5.90;;;9.30;99.90;;;;;;5058608;28;20221;-71
2021/10/17 05:47:33;;;;;;;11.43;5.90;;;9.30;99.90;;;;;;5055394;28;20267;-72
2021/10/17 05:50:00;;;;;;;10.20;6.07;;;9.30;99.90;;;;;;5051860;28;20208;-72
2021/10/17 05:52:27;;;;;;;10.03;6.17;;;9.30;99.90;;;;;;5069799;28;20214;-71
2021/10/17 05:54:55;;;;;;;14.00;6.17;;;9.30;99.90;;;;;;5066424;28;20656;-70
2021/10/17 05:57:22;;;;;;;10.83;5.97;;;9.40;99.90;;;;;;5052556;28;20293;-71
2021/10/17 05:59:49;;;;;;;11.57;6.23;;;9.30;99.90;;;;;;5051629;28;20229;-72
2021/10/17 06:02:17;;;;;;;13.30;6.13;;;9.40;99.90;;;;;;5057085;28;20208;-71
2021/10/17 06:04:44;;;;;;;10.30;6.27;;;9.40;99.90;;;;;;5056689;28;20560;-72
2021/10/17 06:07:13;;;;;;;11.73;6.03;;;9.40;99.90;;;;;;5057277;28;20227;-72
2021/10/17 06:09:40;;;;;;;13.63;6.20;;;9.50;99.90;;;;;;5059375;28;20212;-73
2021/10/17 06:12:09;;;;;;;14.43;6.57;;;9.40;99.90;;;;;;5056361;28;20249;-72
2021/10/17 06:14:36;;;;;;;9.20;5.40;;;9.40;99.90;;;;;;5076115;28;20213;-72
2021/10/17 06:17:04;;;;;;;9.23;6.13;;;9.40;99.90;;;;;;5060399;28;20635;-73
2021/10/17 06:19:31;;;;;;;11.93;5.97;;;9.40;99.90;;;;;;5064480;28;20692;-73
2021/10/17 06:22:02;;;;;;;13.43;6.37;;;9.50;99.90;;;;;;5068238;28;20210;-70
2021/10/17 06:24:30;;;;;;;12.20;6.77;;;9.50;99.90;;;;;;5057390;28;20205;-69
2021/10/17 06:26:57;;;;;;;10.27;5.87;;;9.50;99.90;;;;;;5058215;28;20234;-70
2021/10/17 06:29:25;;;;;;;9.97;5.73;;;9.50;99.90;;;;;;5075802;28;20229;-71
2021/10/17 06:31:52;;;;;;;11.03;6.13;;;9.50;99.90;;;;;;5063574;28;20204;-70
2021/10/17 06:34:19;;;;;;;10.57;5.40;;;9.50;99.90;;;;;;5067953;28;20206;-71
2021/10/17 06:36:47;;;;;;;11.97;6.63;;;9.50;99.90;;;;;;5070288;28;20235;-70
2021/10/17 06:39:14;;;;;;;11.80;6.47;;;9.50;99.90;;;;;;5059027;28;20205;-71
2021/10/17 06:41:41;;;;;;;11.00;6.97;;;9.50;99.90;;;;;;5065108;28;20573;-71
2021/10/17 06:44:07;;;;;;;12.83;6.33;;;9.60;99.90;;;;;;5069583;28;20256;-72
2021/10/17 06:46:36;;;;;;;10.17;5.93;;;9.50;99.90;;;;;;5066252;28;20231;-74
2021/10/17 06:49:03;;;;;;;10.07;6.07;;;9.60;99.90;;;;;;5057407;28;20198;-72
2021/10/17 06:51:30;;;;;;;11.50;6.07;;;9.60;99.90;;;;;;5063460;28;20207;-71
2021/10/17 06:53:56;;;;;;;12.00;5.37;;;9.60;99.90;;;;;;5072677;28;20593;-74
2021/10/17 06:56:23;;;;;;;9.70;6.27;;;9.70;99.90;;;;;;5056508;28;20212;-74
2021/10/17 06:58:50;;;;;;;8.83;5.83;;;9.70;99.90;;;;;;5055846;28;20301;-73
2021/10/17 07:01:17;;;;;;;11.50;6.30;;;9.70;99.90;;;;;;5056629;28;20209;-75
2021/10/17 07:03:45;;;;;;;12.60;5.93;;;9.70;99.90;;;;;;5054870;28;20248;-74
2021/10/17 07:06:14;;;;;;;10.33;6.00;;;9.70;99.90;;;;;;5059991;28;20230;-72
2021/10/17 07:08:40;;;;;;;11.67;6.07;;;9.80;99.90;;;;;;5066796;28;20300;-72
2021/10/17 07:11:07;;;;;;;12.17;5.90;;;9.80;99.90;;;;;;5063547;28;20227;-70
2021/10/17 07:13:34;;;;;;;12.23;5.87;;;9.90;99.90;;;;;;5064236;28;20244;-72
2021/10/17 07:16:01;;;;;;;9.53;5.83;;;9.90;99.90;;;;;;5073223;28;20658;-71
2021/10/17 07:18:28;;;;;;;12.27;5.80;;;9.90;99.90;;;;;;5072438;28;20291;-72
2021/10/17 07:20:56;;;;;;;12.87;6.20;;;9.90;99.90;;;;;;5067922;28;20215;-73
2021/10/17 07:23:23;;;;;;;13.83;7.23;;;9.90;99.90;;;;;;5074801;28;20578;-72
2021/10/17 07:25:50;;;;;;;10.40;6.30;;;10.00;99.90;;;;;;5074130;28;20237;-72
2021/10/17 07:28:17;;;;;;;10.63;6.40;;;10.10;99.90;;;;;;5074926;28;20205;-71
2021/10/17 07:30:44;;;;;;;10.87;5.90;;;10.00;99.90;;;;;;5063553;28;20573;-70
2021/10/17 07:33:11;;;;;;;8.90;5.93;;;10.10;99.90;;;;;;5062301;28;20674;-71
2021/10/17 07:35:38;;;;;;;8.67;5.50;;;10.10;99.90;;;;;;5073096;28;20211;-70
2021/10/17 07:38:06;;;;;;;12.13;7.30;;;10.10;99.90;;;;;;5065615;28;20206;-70
2021/10/17 07:40:34;;;;;;;13.43;6.37;;;10.10;99.90;;;;;;5071086;28;20221;-70
2021/10/17 07:43:00;;;;;;;11.07;6.30;;;10.10;99.90;;;;;;5072875;28;20259;-69
2021/10/17 07:45:27;;;;;;;14.60;7.37;;;10.20;99.90;;;;;;5072107;28;20213;-70
2021/10/17 07:47:54;;;;;;;11.60;6.27;;;10.20;99.90;;;;;;5072948;28;20625;-69
2021/10/17 07:50:21;;;;;;;13.47;6.13;;;10.20;99.90;;;;;;5070777;28;20216;-73
2021/10/17 07:52:48;;;;;;;10.73;5.60;;;10.20;99.90;;;;;;5072464;28;20217;-72
2021/10/17 07:55:16;;;;;;;12.00;5.73;;;10.20;99.90;;;;;;5064176;28;20316;-72
2021/10/17 07:57:47;;;;;;;13.33;6.60;;;10.20;99.90;;;;;;5064473;28;20215;-72
2021/10/17 08:00:17;;;;;;;17.50;5.77;;;10.20;99.90;;;;;;5060631;28;20202;-72
2021/10/17 08:02:44;;;;;;;10.13;6.03;;;10.20;99.90;;;;;;5054126;28;20312;-72
2021/10/17 08:05:11;;;;;;;8.27;5.57;;;10.30;99.90;;;;;;5066505;28;20387;-72
2021/10/17 08:07:38;;;;;;;12.03;5.63;;;10.40;99.90;;;;;;5058827;28;20247;-73
2021/10/17 08:10:06;;;;;;;10.83;6.23;;;10.30;99.90;;;;;;5055906;28;20205;-73
2021/10/17 08:12:34;;;;;;;13.37;5.80;;;10.40;99.90;;;;;;5064985;28;20215;-72
2021/10/17 08:15:01;;;;;;;10.83;6.83;;;10.40;99.90;;;;;;5064286;28;20714;-74
2021/10/17 08:17:28;;;;;;;11.90;6.83;;;10.40;99.90;;;;;;5062263;28;20296;-72
2021/10/17 08:19:55;;;;;;;12.37;7.07;;;10.40;99.90;;;;;;5072135;28;20219;-72
2021/10/17 08:22:23;;;;;;;9.77;6.10;;;10.50;99.90;;;;;;5073347;28;20248;-74
2021/10/17 08:24:52;;;;;;;12.27;6.10;;;10.40;99.90;;;;;;5073850;28;20220;-72
2021/10/17 08:27:19;;;;;;;11.63;5.83;;;10.40;99.90;;;;;;5071788;28;20217;-73
2021/10/17 08:29:47;;;;;;;9.80;6.93;;;10.40;99.90;;;;;;5057959;28;20244;-71
2021/10/17 08:32:14;;;;;;;13.57;6.23;;;10.50;99.90;;;;;;5070554;28;20201;-72
2021/10/17 08:34:41;;;;;;;13.37;6.50;;;10.40;99.90;;;;;;5073247;28;20215;-70
2021/10/17 08:37:11;;;;;;;14.00;6.10;;;10.40;99.90;;;;;;5071701;28;20280;-70
2021/10/17 08:39:38;;;;;;;13.93;6.83;;;10.40;99.90;;;;;;5055767;28;20237;-70
2021/10/17 08:42:05;;;;;;;11.70;6.43;;;10.40;99.90;;;;;;5067447;28;20692;-69
2021/10/17 08:44:32;;;;;;;16.53;7.10;;;10.40;99.90;;;;;;5064200;28;20300;-68
2021/10/17 08:47:01;;;;;;;11.13;5.63;;;10.40;99.90;;;;;;5071098;28;20221;-69
2021/10/17 08:49:29;;;;;;;10.37;5.83;;;10.40;99.90;;;;;;5059771;28;20219;-69
2021/10/17 08:51:56;;;;;;;12.73;7.07;;;10.40;99.90;;;;;;5059197;28;20297;-67
2021/10/17 08:54:23;;;;;;;15.27;6.07;;;10.50;99.90;;;;;;5061257;28;20197;-68
2021/10/17 08:56:50;;;;;;;10.57;5.87;;;10.50;99.90;;;;;;5053172;28;20212;-69
2021/10/17 08:59:16;;;;;;;11.00;6.73;;;10.50;99.90;;;;;;5052320;28;20210;-68
2021/10/17 09:01:43;;;;;;;14.30;7.37;;;10.50;99.90;;;;;;5058248;28;20211;-68
2021/10/17 09:04:15;;;;;;;11.80;6.50;;;10.50;99.90;;;;;;5056901;28;20210;-70
2021/10/17 09:06:44;;;;;;;12.33;6.07;;;10.40;99.90;;;;;;5052031;28;20221;-70
2021/10/17 09:09:12;;;;;;;12.27;6.60;;;10.50;99.90;;;;;;5057236;28;20206;-69
2021/10/17 09:11:42;;;;;;;15.20;8.90;;;10.40;99.90;;;;;;5067220;28;20660;-72
2021/10/17 09:14:11;;;;;;;11.33;6.70;;;10.40;99.90;;;;;;5067736;28;20642;-70
2021/10/17 09:16:39;;;;;;;11.20;7.03;;;10.50;99.90;;;;;;5067173;28;20666;-75
2021/10/17 09:19:22;;;;;;;13.43;7.00;;;10.50;99.90;;;;;;5066554;28;20198;-72
2021/10/17 09:22:03;;;;;;;13.97;6.80;;;10.50;99.90;;;;;;5067428;28;20248;-70
2021/10/17 09:24:33;;;;;;;13.33;7.00;;;10.40;99.90;;;;;;5065631;28;20213;-70
2021/10/17 09:27:04;;;;;;;11.93;6.50;;;10.50;99.90;;;;;;5062134;28;20224;-74
2021/10/17 09:29:31;;;;;;;12.47;6.87;;;10.50;99.90;;;;;;5065221;28;20752;-72
2021/10/17 09:31:58;;;;;;;11.40;6.40;;;10.50;99.90;;;;;;5064418;28;20224;-72
2021/10/17 09:34:28;;;;;;;12.33;6.53;;;10.60;99.90;;;;;;5056403;28;20259;-71
2021/10/17 09:37:07;;;;;;;11.97;6.60;;;10.60;99.90;;;;;;5061217;28;20559;-72
2021/10/17 09:39:36;;;;;;;10.70;6.00;;;10.70;99.90;;;;;;5059771;28;20296;-71
2021/10/17 09:42:03;;;;;;;9.50;6.03;;;10.80;99.90;;;;;;5057188;28;20201;-72
2021/10/17 09:44:37;;;;;;;10.13;6.37;;;10.90;99.90;;;;;;5059977;28;20295;-72
2021/10/17 09:47:04;;;;;;;9.97;5.80;;;11.00;99.90;;;;;;5070719;28;20368;-72
2021/10/17 09:49:33;;;;;;;11.60;6.23;;;11.00;99.90;;;;;;5057797;28;20297;-74
2021/10/17 09:52:18;;;;;;;12.93;6.37;;;11.10;99.90;;;;;;5057037;28;20237;-73
2021/10/17 09:55:05;;;;;;;11.37;6.10;;;11.20;99.90;;;;;;5060722;28;20624;-74
2021/10/17 09:57:32;;;;;;;9.40;5.53;;;11.20;99.90;;;;;;5061639;28;20729;-72
2021/10/17 09:59:59;;;;;;;9.73;5.63;;;11.20;99.90;;;;;;5058565;28;20212;-73
2021/10/17 10:02:26;;;;;;;9.17;5.77;;;11.20;99.90;;;;;;5055044;28;20252;-73
2021/10/17 10:04:56;;;;;;;11.00;5.87;;;11.20;99.90;;;;;;5054364;28;300306;-72
2021/10/17 10:07:24;;;;;;;8.57;6.10;;;11.20;99.90;;;;;;5062826;28;20221;-71
2021/10/17 10:09:51;;;;;;;10.77;5.73;;;11.20;99.90;;;;;;5059535;28;20404;-72
2021/10/17 10:12:22;;;;;;;9.80;5.63;;;11.10;99.90;;;;;;5052233;28;20212;-73
2021/10/17 10:14:50;;;;;;;10.17;5.43;;;11.10;99.90;;;;;;5051815;28;20288;-72
2021/10/17 10:17:18;;;;;;;9.53;5.73;;;11.10;99.90;;;;;;5054074;28;20204;-73
2021/10/17 10:19:46;;;;;;;9.40;6.30;;;11.20;99.90;;;;;;5054825;28;20220;-73
2021/10/17 10:22:16;;;;;;;13.33;6.13;;;11.20;99.90;;;;;;5059313;28;20210;-75
2021/10/17 10:24:45;;;;;;;12.13;6.10;;;11.20;99.90;;;;;;5058341;28;20317;-73
2021/10/17 10:27:12;;;;;;;8.97;5.60;;;11.20;99.90;;;;;;5051707;28;20232;-73
2021/10/17 10:29:39;;;;;;;12.00;6.70;;;11.20;99.90;;;;;;5062469;28;20230;-72
2021/10/17 10:32:07;;;;;;;11.07;5.73;;;11.10;99.90;;;;;;5052431;28;20438;-73
2021/10/17 10:34:52;;;;;;;8.07;5.57;;;11.20;99.90;;;;;;5061605;28;20529;-73
2021/10/17 10:37:21;;;;;;;8.30;6.00;;;11.20;99.90;;;;;;5052361;28;20758;-73
2021/10/17 10:40:10;;;;;;;11.43;5.90;;;11.20;99.90;;;;;;5052137;28;20217;-72
2021/10/17 10:42:39;;;;;;;10.23;5.87;;;11.20;99.90;;;;;;5051247;28;20302;-73
2021/10/17 10:45:34;;;;;;;10.90;5.37;;;11.30;99.90;;;;;;5059254;28;20224;-72
2021/10/17 10:48:23;;;;;;;10.33;5.87;;;11.30;99.90;;;;;;5012741;28;20652;-73
2021/10/17 10:50:55;;;;;;;9.27;4.93;;;11.40;99.90;;;;;;5066464;28;20609;-71
2021/10/17 10:53:51;;;;;;;9.50;5.43;;;11.40;99.90;;;;;;5054810;28;20198;-73
2021/10/17 10:56:50;;;;;;;10.63;5.20;;;11.30;99.90;;;;;;5052954;28;20218;-72
2021/10/17 10:59:21;;;;;;;7.63;4.73;;;11.30;99.90;;;;;;5054319;28;20673;-72
2021/10/17 11:01:57;;;;;;;8.10;5.00;;;11.30;99.90;;;;;;5063867;28;20232;-72
2021/10/17 11:04:59;;;;;;;8.83;5.57;;;11.30;99.90;;;;;;5062070;28;20205;-72
2021/10/17 11:07:35;;;;;;;9.47;4.97;;;11.30;99.90;;;;;;5037701;28;20217;-72
2021/10/17 11:10:41;;;;;;;8.57;5.50;;;11.30;99.90;;;;;;5057998;28;20296;-73
2021/10/17 11:13:12;;;;;;;10.93;4.90;;;11.30;99.90;;;;;;5055846;28;20214;-73
2021/10/17 11:15:43;;;;;;;10.17;5.30;;;11.40;99.90;;;;;;5063970;28;20629;-73
2021/10/17 11:18:12;;;;;;;10.23;5.00;;;11.40;99.90;;;;;;5059737;28;20247;-72
2021/10/17 11:20:42;;;;;;;8.37;5.17;;;11.50;99.90;;;;;;5055397;28;20682;-72
2021/10/17 11:23:17;;;;;;;6.67;4.97;;;11.50;99.90;;;;;;5055779;28;20210;-73
2021/10/17 11:25:53;;;;;;;7.73;4.97;;;11.50;99.90;;;;;;5058546;28;20197;-72
2021/10/17 11:28:22;;;;;;;10.87;5.80;;;11.50;99.90;;;;;;5058794;28;20560;-73
2021/10/17 11:30:49;;;;;;;7.20;4.97;;;11.50;99.90;;;;;;5060271;28;20233;-71
2021/10/17 11:33:21;;;;;;;8.03;5.27;;;11.50;99.90;;;;;;5057456;28;20300;-71
2021/10/17 11:35:48;;;;;;;9.30;4.83;;;11.60;99.90;;;;;;5053149;28;20227;-69
2021/10/17 11:38:17;;;;;;;6.90;4.57;;;11.60;99.90;;;;;;5058361;28;20677;-71
2021/10/17 11:40:45;;;;;;;8.40;5.40;;;11.60;99.90;;;;;;5056937;28;20242;-70
2021/10/17 11:43:12;;;;;;;8.80;4.53;;;11.60;99.90;;;;;;5054278;28;20202;-70
2021/10/17 11:45:43;;;;;;;9.57;5.50;;;11.60;99.90;;;;;;5066649;28;20209;-70
2021/10/17 11:48:13;;;;;;;7.40;4.93;;;11.60;99.90;;;;;;5058734;28;20234;-70
2021/10/17 11:50:42;;;;;;;10.10;5.50;;;11.70;99.90;;;;;;5060531;28;20210;-70
2021/10/17 11:53:11;;;;;;;10.03;5.23;;;11.70;99.90;;;;;;5052093;28;20206;-70
2021/10/17 11:55:39;;;;;;;9.90;4.67;;;11.80;99.90;;;;;;5055495;28;20326;-69
2021/10/17 11:58:13;;;;;;;8.93;4.80;;;11.80;99.90;;;;;;5058597;28;20666;-71
2021/10/17 12:00:43;;;;;;;7.70;4.67;;;11.80;99.90;;;;;;5055112;28;20216;-71
2021/10/17 12:03:10;;;;;;;8.17;5.13;;;11.80;99.90;;;;;;5056615;28;20288;-73
2021/10/17 12:05:42;;;;;;;7.40;4.63;;;11.80;99.90;;;;;;5063501;28;20220;-73
2021/10/17 12:08:18;;;;;;;8.17;5.07;;;11.80;99.90;;;;;;5057801;28;20248;-73
2021/10/17 12:10:54;;;;;;;7.53;4.83;;;11.80;99.90;;;;;;5061860;28;20284;-74
2021/10/17 12:13:21;;;;;;;7.50;4.60;;;11.80;99.90;;;;;;5065437;28;20200;-74
2021/10/17 12:15:49;;;;;;;8.47;5.03;;;11.80;99.90;;;;;;5070120;28;20223;-75
2021/10/17 12:18:16;;;;;;;10.83;4.97;;;11.90;99.90;;;;;;5056606;28;20209;-74
2021/10/17 12:20:43;;;;;;;10.03;5.30;;;11.90;99.90;;;;;;5054833;28;20210;-72
2021/10/17 12:23:25;;;;;;;10.00;5.70;;;11.80;99.90;;;;;;5054448;28;20284;-72
2021/10/17 12:25:52;;;;;;;7.13;4.60;;;11.80;99.90;;;;;;5054520;28;20236;-70
2021/10/17 12:28:19;;;;;;;8.83;5.20;;;11.80;99.90;;;;;;5064046;28;20708;-68
2021/10/17 12:30:50;;;;;;;12.03;5.77;;;11.80;99.90;;;;;;5060203;28;20241;-70
2021/10/17 12:33:29;;;;;;;12.37;5.23;;;11.80;99.90;;;;;;5054180;28;20208;-70
2021/10/17 12:35:56;;;;;;;6.97;5.10;;;11.70;99.90;;;;;;5063935;28;20303;-70
2021/10/17 12:38:30;;;;;;;9.53;5.30;;;11.70;99.90;;;;;;5057547;28;20199;-71
2021/10/17 12:40:58;;;;;;;8.53;5.13;;;11.70;99.90;;;;;;5063865;28;20201;-70
2021/10/17 12:43:27;;;;;;;9.20;5.37;;;11.70;99.90;;;;;;5056585;28;20297;-71
2021/10/17 12:45:56;;;;;;;10.63;6.23;;;11.70;99.90;;;;;;5052779;28;20741;-71
2021/10/17 12:48:37;;;;;;;12.67;5.67;;;11.70;99.90;;;;;;5057485;28;20221;-70
2021/10/17 12:51:24;;;;;;;9.20;5.67;;;11.70;99.90;;;;;;5064688;28;20667;-70
2021/10/17 12:54:05;;;;;;;11.43;6.37;;;11.70;99.90;;;;;;5064621;28;20231;-72